Ana Sayfa
METAR-TAF:

METAR-TAF

Havaalanları :

Ouagadougou, Burkina Faso

Enlem: 12-21N, Boylam: 001-31W, yükseklik: 316 m

Güncel hava durumu gözlemi

Rapor saat 13:00 UTC de 1 saat ve 14 dakika önce yapıldı.
Rüzgar doğudan 4 kt
Sıcaklık 32°C
Nem 56%
Basınç 1011 hPa
Görüş mesafesi 10 km veya daha fazla
2000 ft yükseklikte az bulutlu

METAR: DFFD 261300Z 08004KT 9999 FEW020 32/22 Q1011 NOSIG

Saat: 14:14 (14:14 UTC)

Tahmin

Rapor saat 11:00 UTC de 3 saat ve 14 dakika önce yapıldı.
Ayın 26'si saat 12 UTC'den ayın 27'si saat 18 UTC'ye kadar geçerli Tahmin
Rüzgar güney/güneybatıdan 8 kt
Görüş mesafesi 10 km veya daha fazla
2000 ft yükseklikte az bulutlu
Geçici
ayın 26'si saat 14 UTC'den ayın 26'si saat 22 UTC'ye kadar
Görüş mesafesi: 4000 m
2000 ft yükseklikte parçalı bulutlu
3300 ft yükseklikte az bulutlu, Kümülonimbus.
gök gürültülü fırtına, yağmur

TAF: DFFD 261100Z 2612/2718 20008KT 9999 FEW020 TEMPO 2614/2622 4000 TSRA SCT020 FEW033CB

4.000'den fazla havaalanı için hava durumu gözlemleri ve tahminleri (METAR ve TAF raporları).

Kullanılabilir istasyonlar harita üzerinde sarı ve kırmızı noktalarla gösterilir.

İstasyonun adını görmek için fareyi noktanın üzerinde gezdirin.

Sonrasında hava gözlem ve tahminlerini görmek için tıklayın.

Haritayı değiştirmek için: yaklaştırmak için siyah artı işaretli yeşil düğmeye ve uzaklaştırmak için de eksi işaretli düğmeye hızla tıklayın; bitişik haritalar için yeşil okları kullanın.


METAR-TAF: